Time;durP1;ratioP1;P1;durP2;ratioP2;P2;SDS_P1;SDS_P2;PMS_P1;PMS_P2;Temp;Humidity;BMP_temperature;BMP_pressure;BME280_temperature;BME280_humidity;BME280_pressure;Samples;Min_cycle;Max_cycle;Signal;HPM_P1;HPM_P2
2022/12/18 00:01:57;;;;;;;112.93;36.00;;;;;;;;;;5112447;28;20051;-66
2022/12/18 00:04:24;;;;;;;106.40;36.67;;;;;;;;;;5113538;28;20130;-65
2022/12/18 00:06:50;;;;;;;117.45;38.13;;;;;;;;;;5112669;28;20096;-65
2022/12/18 00:09:16;;;;;;;107.35;36.03;;;;;;;;;;5113379;28;20040;-66
2022/12/18 00:11:42;;;;;;;;;;;;;;;;;;5113752;28;20052;-66
2022/12/18 00:14:09;;;;;;;110.50;36.83;;;;;;;;;;5113028;28;19924;-65
2022/12/18 00:16:36;;;;;;;110.88;36.03;;;;;;;;;;5113293;28;20135;-65
2022/12/18 00:19:03;;;;;;;111.95;34.25;;;;;;;;;;5113212;28;20074;-69
2022/12/18 00:21:30;;;;;;;108.22;36.95;;;;;;;;;;5112158;28;20052;-65
2022/12/18 00:23:56;;;;;;;105.68;35.67;;;;;;;;;;5113194;28;20058;-66
2022/12/18 00:26:22;;;;;;;;;;;;;;;;;;5113526;28;20050;-67
2022/12/18 00:28:48;;;;;;;108.95;36.80;;;;;;;;;;5112822;28;19930;-65
2022/12/18 00:31:16;;;;;;;109.28;35.90;;;;;;;;;;5112947;28;20177;-65
2022/12/18 00:33:42;;;;;;;110.95;34.97;;;;;;;;;;5112146;28;20043;-65
2022/12/18 00:36:10;;;;;;;118.68;38.42;;;;;;;;;;5113397;28;20078;-65
2022/12/18 00:38:37;;;;;;;106.15;34.92;;;;;;;;;;5113045;28;20051;-69
2022/12/18 00:41:03;;;;;;;116.13;35.92;;;;;;;;;;5112751;28;20189;-67
2022/12/18 00:43:29;;;;;;;121.28;38.42;;;;;;;;;;5112489;28;20051;-65
2022/12/18 00:45:55;;;;;;;117.63;37.58;;;;;;;;;;5112730;28;20044;-65
2022/12/18 00:48:21;;;;;;;116.72;35.92;;;;;;;;;;5094645;28;20043;-65
2022/12/18 00:50:50;;;;;;;127.72;37.10;;;;;;;;;;5112645;28;20108;-67
2022/12/18 00:53:16;;;;;;;121.22;38.35;;;;;;;;;;5112565;28;20094;-65
2022/12/18 00:55:42;;;;;;;110.25;37.15;;;;;;;;;;5112523;28;20051;-67
2022/12/18 00:58:09;;;;;;;115.65;35.88;;;;;;;;;;5112246;28;20055;-65
2022/12/18 01:00:36;;;;;;;121.70;38.22;;;;;;;;;;5112512;28;20112;-64
2022/12/18 01:03:02;;;;;;;119.65;39.00;;;;;;;;;;5112546;28;20184;-65
2022/12/18 01:05:28;;;;;;;121.30;37.50;;;;;;;;;;5112689;28;20445;-70
2022/12/18 01:07:55;;;;;;;110.90;36.25;;;;;;;;;;5112434;28;20496;-65
2022/12/18 01:10:21;;;;;;;121.60;37.20;;;;;;;;;;5112463;28;20100;-65
2022/12/18 01:12:47;;;;;;;129.65;36.88;;;;;;;;;;5112046;28;20082;-64
2022/12/18 01:15:15;;;;;;;122.65;37.40;;;;;;;;;;5112444;28;20089;-68
2022/12/18 01:17:41;;;;;;;114.55;35.65;;;;;;;;;;5112237;28;20445;-64
2022/12/18 01:20:08;;;;;;;125.13;35.03;;;;;;;;;;5112328;28;20050;-65
2022/12/18 01:22:34;;;;;;;120.35;38.58;;;;;;;;;;5112205;28;20059;-66
2022/12/18 01:25:00;;;;;;;118.70;37.38;;;;;;;;;;5112229;28;20150;-65
2022/12/18 01:27:27;;;;;;;104.75;34.03;;;;;;;;;;5111976;28;20043;-64
2022/12/18 01:29:52;;;;;;;;;;;;;;;;;;5112602;28;20093;-65
2022/12/18 01:32:18;;;;;;;122.72;35.95;;;;;;;;;;5110794;28;20032;-66
2022/12/18 01:34:45;;;;;;;119.20;37.03;;;;;;;;;;5112144;28;20043;-66
2022/12/18 01:37:11;;;;;;;109.95;33.78;;;;;;;;;;5112118;28;20480;-64
2022/12/18 01:39:37;;;;;;;111.72;32.92;;;;;;;;;;5112086;28;20503;-65
2022/12/18 01:42:03;;;;;;;101.38;33.70;;;;;;;;;;5111342;28;20124;-64
2022/12/18 01:44:48;;;;;;;106.47;32.22;;;;;;;;;;5112034;28;20048;-65
2022/12/18 01:47:16;;;;;;;105.85;34.08;;;;;;;;;;5112012;28;20094;-65
2022/12/18 01:49:42;;;;;;;109.88;36.05;;;;;;;;;;5111987;28;20396;-64
2022/12/18 01:52:08;;;;;;;106.75;34.88;;;;;;;;;;5111891;28;20087;-68
2022/12/18 01:54:34;;;;;;;117.05;36.55;;;;;;;;;;5111948;28;20040;-65
2022/12/18 01:57:01;;;;;;;115.75;35.53;;;;;;;;;;5111711;28;20043;-64
2022/12/18 01:59:28;;;;;;;108.20;34.78;;;;;;;;;;5111953;28;20083;-64
2022/12/18 02:01:54;;;;;;;107.45;34.08;;;;;;;;;;5111814;28;20103;-65
2022/12/18 02:04:22;;;;;;;114.07;34.60;;;;;;;;;;5111885;28;20043;-64
2022/12/18 02:06:51;;;;;;;115.32;33.17;;;;;;;;;;5111940;28;20044;-64
2022/12/18 02:09:23;;;;;;;116.82;35.72;;;;;;;;;;5110519;28;20051;-65
2022/12/18 02:11:49;;;;;;;114.22;33.65;;;;;;;;;;5111972;28;20495;-65
2022/12/18 02:14:30;;;;;;;109.95;35.17;;;;;;;;;;5111992;28;20148;-64
2022/12/18 02:17:16;;;;;;;123.10;35.50;;;;;;;;;;5111781;28;20440;-64
2022/12/18 02:19:45;;;;;;;120.32;35.45;;;;;;;;;;5111993;28;20381;-65
2022/12/18 02:22:27;;;;;;;128.55;37.10;;;;;;;;;;5111727;28;20044;-64
2022/12/18 02:25:30;;;;;;;120.75;36.92;;;-3.70;99.90;;;;;;5110245;28;20043;-64
2022/12/18 02:28:00;;;;;;;123.80;35.60;;;;;;;;;;5111665;28;20058;-64
2022/12/18 02:30:27;;;;;;;118.70;35.63;;;;;;;;;;5113221;28;20039;-64
2022/12/18 02:32:54;;;;;;;116.15;36.63;;;;;;;;;;5115181;28;20043;-65
2022/12/18 02:35:25;;;;;;;117.32;34.38;;;;;;;;;;5113916;28;20497;-64
2022/12/18 02:37:52;;;;;;;118.50;34.28;;;;;;;;;;5115256;27;20052;-64
2022/12/18 02:40:18;;;;;;;;;;;;;;;;;;5131240;27;20542;-66
2022/12/18 02:42:44;;;;;;;135.88;38.13;;;;;;;;;;5115273;27;19923;-64
2022/12/18 02:45:10;;;;;;;117.63;34.42;;;;;;;;;;5115120;28;20043;-65
2022/12/18 02:47:44;;;;;;;116.85;34.92;;;;;;;;;;5113845;28;20066;-64
2022/12/18 02:50:13;;;;;;;119.47;36.17;;;;;;;;;;5115043;28;20047;-65
2022/12/18 02:52:39;;;;;;;118.28;35.67;;;;;;;;;;5114828;28;20156;-67
2022/12/18 02:55:36;;;;;;;122.38;36.33;;;-3.90;99.90;;;;;;5114589;28;20079;-65
2022/12/18 02:58:19;;;;;;;112.75;35.33;;;;;;;;;;5113999;28;20051;-64
2022/12/18 03:00:48;;;;;;;111.63;35.95;;;;;;;;;;5114908;28;20098;-65
2022/12/18 03:03:25;;;;;;;114.57;34.78;;;;;;;;;;5113249;28;20055;-71
2022/12/18 03:05:56;;;;;;;;;;;-3.70;99.90;;;;;;5115479;28;20047;-64
2022/12/18 03:08:24;;;;;;;121.45;37.88;;;;;;;;;;5114445;28;19956;-64
2022/12/18 03:10:54;;;;;;;116.25;38.10;;;;;;;;;;5114585;28;20055;-66
2022/12/18 03:13:23;;;;;;;113.63;36.20;;;;;;;;;;5114186;28;20491;-65
2022/12/18 03:15:51;;;;;;;111.03;35.17;;;;;;;;;;5114501;28;20048;-68
2022/12/18 03:18:38;;;;;;;110.93;34.88;;;;;;;;;;5114471;28;20384;-64
2022/12/18 03:21:06;;;;;;;116.07;37.03;;;;;;;;;;5114504;28;20055;-64
2022/12/18 03:23:37;;;;;;;111.75;35.80;;;;;;;;;;5114041;28;20487;-66
2022/12/18 03:26:06;;;;;;;106.90;35.05;;;;;;;;;;5114345;28;20099;-64
2022/12/18 03:28:34;;;;;;;113.22;36.00;;;;;;;;;;5112918;28;20054;-64
2022/12/18 03:31:01;;;;;;;112.32;36.22;;;;;;;;;;5114121;28;20132;-67
2022/12/18 03:33:32;;;;;;;119.35;36.25;;;;;;;;;;5112836;28;20046;-65
2022/12/18 03:35:58;;;;;;;111.80;35.67;;;;;;;;;;5114162;27;20103;-64
2022/12/18 03:38:24;;;;;;;106.70;36.00;;;;;;;;;;5113794;28;20067;-64
2022/12/18 03:40:59;;;;;;;99.40;35.28;;;;;;;;;;5113324;28;20059;-66
2022/12/18 03:43:34;;;;;;;100.78;33.80;;;;;;;;;;5113356;28;20119;-64
2022/12/18 03:46:05;;;;;;;101.22;34.20;;;;;;;;;;5113881;28;20483;-67
2022/12/18 03:48:47;;;;;;;109.10;35.03;;;;;;;;;;5113902;28;20073;-64
2022/12/18 03:51:21;;;;;;;99.38;35.08;;;;;;;;;;5113777;28;20130;-64
2022/12/18 03:53:47;;;;;;;107.78;33.40;;;;;;;;;;5113924;28;20672;-64
2022/12/18 03:56:14;;;;;;;105.82;35.15;;;;;;;;;;5112707;28;20506;-64
2022/12/18 03:58:43;;;;;;;109.88;36.75;;;-4.40;99.90;;;;;;5112331;28;20496;-65
2022/12/18 04:01:11;;;;;;;104.90;34.13;;;;;;;;;;5113605;28;20047;-64
2022/12/18 04:03:38;;;;;;;106.00;36.47;;;;;;;;;;5113499;28;20122;-64
2022/12/18 04:06:05;;;;;;;111.72;36.13;;;;;;;;;;5111676;28;20468;-64
2022/12/18 04:08:31;;;;;;;113.53;37.72;;;;;;;;;;5113469;28;20051;-64
2022/12/18 04:10:57;;;;;;;110.43;36.05;;;;;;;;;;5113347;28;20047;-64
2022/12/18 04:13:30;;;;;;;115.28;36.22;;;;;;;;;;5113279;27;20044;-64
2022/12/18 04:15:56;;;;;;;114.95;37.75;;;;;;;;;;5113280;28;20054;-65
2022/12/18 04:18:22;;;;;;;112.97;37.50;;;;;;;;;;5113236;28;20043;-64
2022/12/18 04:20:48;;;;;;;113.95;38.92;;;;;;;;;;5111876;28;20134;-64
2022/12/18 04:23:14;;;;;;;112.40;37.65;;;;;;;;;;5113185;28;20106;-68
2022/12/18 04:25:40;;;;;;;110.15;36.53;;;;;;;;;;5113130;28;20048;-64
2022/12/18 04:28:06;;;;;;;115.50;38.88;;;;;;;;;;5112785;28;20047;-64
2022/12/18 04:30:32;;;;;;;120.50;39.42;;;;;;;;;;5113032;28;20047;-64
2022/12/18 04:32:58;;;;;;;116.55;40.40;;;;;;;;;;5112918;28;20044;-64
2022/12/18 04:35:24;;;;;;;115.53;39.25;;;;;;;;;;5112759;28;20252;-64
2022/12/18 04:37:50;;;;;;;120.50;39.20;;;;;;;;;;5112855;28;20047;-65
2022/12/18 04:40:16;;;;;;;113.15;39.17;;;;;;;;;;5112699;28;20116;-64
2022/12/18 04:42:42;;;;;;;114.90;38.13;;;;;;;;;;5128496;27;20094;-64
2022/12/18 04:45:08;;;;;;;108.97;37.38;;;;;;;;;;5112740;28;20044;-64
2022/12/18 04:47:34;;;;;;;105.43;38.00;;;;;;;;;;5112755;28;20047;-64
2022/12/18 04:50:01;;;;;;;113.22;38.13;;;;;;;;;;5112492;28;20090;-68
2022/12/18 04:52:27;;;;;;;96.90;35.08;;;;;;;;;;5111062;28;20040;-64
2022/12/18 04:54:53;;;;;;;103.93;37.20;;;;;;;;;;5112722;28;20443;-64
2022/12/18 04:57:19;;;;;;;108.07;35.33;;;;;;;;;;5112865;28;20047;-64
2022/12/18 04:59:45;;;;;;;107.32;36.75;;;;;;;;;;5112734;28;20046;-64
2022/12/18 05:02:11;;;;;;;101.85;35.28;;;;;;;;;;5111602;28;20055;-69
2022/12/18 05:04:37;;;;;;;109.35;36.88;;;;;;;;;;5112271;28;20043;-64
2022/12/18 05:07:03;;;;;;;99.43;37.70;;;;;;;;;;5111192;28;20050;-64
2022/12/18 05:09:30;;;;;;;96.00;35.58;;;;;;;;;;5112056;28;20562;-64
2022/12/18 05:11:56;;;;;;;94.20;36.55;;;;;;;;;;5112323;28;20358;-64
2022/12/18 05:14:22;;;;;;;101.03;35.15;;;;;;;;;;5112392;28;20147;-66
2022/12/18 05:16:48;;;;;;;99.53;35.70;;;;;;;;;;5112293;28;20541;-64
2022/12/18 05:19:14;;;;;;;106.90;35.67;;;;;;;;;;5111952;28;20054;-64
2022/12/18 05:21:40;;;;;;;99.53;35.08;;;;;;;;;;5112287;28;20085;-64
2022/12/18 05:24:07;;;;;;;101.25;35.28;;;;;;;;;;5111068;28;20040;-65
2022/12/18 05:26:33;;;;;;;97.60;34.35;;;;;;;;;;5112245;28;20055;-64
2022/12/18 05:28:59;;;;;;;98.13;34.17;;;;;;;;;;5112185;28;20047;-64
2022/12/18 05:31:25;;;;;;;92.72;34.78;;;;;;;;;;5112181;28;20100;-64
2022/12/18 05:33:51;;;;;;;89.78;33.70;;;;;;;;;;5111742;28;20131;-68
2022/12/18 05:36:17;;;;;;;89.80;33.65;;;;;;;;;;5112137;28;20097;-64
2022/12/18 05:38:43;;;;;;;93.03;33.78;;;;;;;;;;5112108;28;20052;-68
2022/12/18 05:41:10;;;;;;;85.90;32.40;;;;;;;;;;5110586;28;20066;-64
2022/12/18 05:43:37;;;;;;;81.95;32.10;;;;;;;;;;5110987;28;20528;-64
2022/12/18 05:46:04;;;;;;;83.35;32.80;;;;;;;;;;5110817;28;20044;-64
2022/12/18 05:48:30;;;;;;;84.35;32.83;;;;;;;;;;5111736;28;20104;-64
2022/12/18 05:51:03;;;;;;;86.07;32.72;;;;;;;;;;5112044;28;20399;-66
2022/12/18 05:53:29;;;;;;;93.25;33.22;;;;;;;;;;5111931;28;20092;-66
2022/12/18 05:55:59;;;;;;;85.70;33.70;;;;;;;;;;5111958;28;20188;-65
2022/12/18 05:58:25;;;;;;;84.88;33.55;;;;;;;;;;5112086;28;20047;-64
2022/12/18 06:00:51;;;;;;;84.93;33.28;;;;;;;;;;5111863;28;20047;-66
2022/12/18 06:03:17;;;;;;;85.20;33.55;;;;;;;;;;5111571;28;20047;-64
2022/12/18 06:05:45;;;;;;;93.60;35.08;;;;;;;;;;5114002;28;20044;-64
2022/12/18 06:08:12;;;;;;;91.20;31.67;;;;;;;;;;5115865;28;20074;-65
2022/12/18 06:10:38;;;;;;;88.30;32.35;;;;;;;;;;5115791;27;20123;-64
2022/12/18 06:13:05;;;;;;;79.40;32.40;;;;;;;;;;5115645;28;20051;-64
2022/12/18 06:15:31;;;;;;;82.35;32.70;;;;;;;;;;5115722;28;20051;-64
2022/12/18 06:17:57;;;;;;;85.25;32.15;;;;;;;;;;5115428;28;20051;-64
2022/12/18 06:20:24;;;;;;;78.22;31.52;;;;;;;;;;5115606;28;20083;-64
2022/12/18 06:22:50;;;;;;;83.40;32.40;;;;;;;;;;5115506;28;20044;-64
2022/12/18 06:25:16;;;;;;;84.32;32.78;;;;;;;;;;5115450;28;20113;-67
2022/12/18 06:27:42;;;;;;;74.53;30.58;;;;;;;;;;5115409;28;20058;-68
2022/12/18 06:30:09;;;;;;;82.32;31.73;;;;;;;;;;5115419;28;20496;-65
2022/12/18 06:32:35;;;;;;;82.88;30.63;;;;;;;;;;5113704;28;20061;-63
2022/12/18 06:35:01;;;;;;;78.38;30.17;;;;;;;;;;5115262;28;20083;-64
2022/12/18 06:37:27;;;;;;;78.07;31.48;;;;;;;;;;5115295;28;20058;-66
2022/12/18 06:39:53;;;;;;;83.38;31.15;;;;;;;;;;5115140;28;20043;-65
2022/12/18 06:42:20;;;;;;;82.47;31.08;;;;;;;;;;5114703;28;20044;-64
2022/12/18 06:44:46;;;;;;;69.68;28.90;;;;;;;;;;5131223;27;20059;-64
2022/12/18 06:47:12;;;;;;;80.45;30.65;;;;;;;;;;5114797;28;20058;-68
2022/12/18 06:49:38;;;;;;;80.15;30.95;;;;;;;;;;5131292;27;20206;-64
2022/12/18 06:52:04;;;;;;;75.45;30.98;;;;;;;;;;5115241;28;20043;-64
2022/12/18 06:54:30;;;;;;;82.13;30.58;;;;;;;;;;5115181;28;20052;-64
2022/12/18 06:56:56;;;;;;;78.90;31.10;;;;;;;;;;5114937;28;20392;-64
2022/12/18 06:59:22;;;;;;;82.72;29.67;;;;;;;;;;5113725;28;20514;-68
2022/12/18 07:01:48;;;;;;;84.60;32.58;;;;;;;;;;5114851;28;20055;-65
2022/12/18 07:04:14;;;;;;;81.97;30.95;;;;;;;;;;5114908;28;20053;-64
2022/12/18 07:06:40;;;;;;;79.25;30.33;;;;;;;;;;5114768;28;20046;-64
2022/12/18 07:09:06;;;;;;;81.07;29.45;;;;;;;;;;5114390;28;20576;-64
2022/12/18 07:11:33;;;;;;;76.43;30.90;;;;;;;;;;5114481;28;20074;-68
2022/12/18 07:13:59;;;;;;;78.50;30.85;;;;;;;;;;5114336;28;20039;-65
2022/12/18 07:16:28;;;;;;;83.70;29.42;;;;;;;;;;5114346;28;20043;-64
2022/12/18 07:18:57;;;;;;;81.35;31.27;;;;;;;;;;5114481;28;20047;-66
2022/12/18 07:21:23;;;;;;;73.10;29.00;;;;;;;;;;5114450;28;20051;-68
2022/12/18 07:23:50;;;;;;;82.60;31.13;;;;;;;;;;5104462;28;20036;-66
2022/12/18 07:26:18;;;;;;;73.55;29.95;;;;;;;;;;5104642;28;20127;-64
2022/12/18 07:28:44;;;;;;;74.43;29.08;;;;;;;;;;5112370;28;20075;-64
2022/12/18 07:31:11;;;;;;;88.82;30.30;;;;;;;;;;5113643;28;20048;-64
2022/12/18 07:33:37;;;;;;;74.50;29.30;;;;;;;;;;5113408;28;20036;-64
2022/12/18 07:36:04;;;;;;;85.32;28.33;;;;;;;;;;5113698;28;20139;-64
2022/12/18 07:38:30;;;;;;;67.82;28.48;;;;;;;;;;5113136;28;20535;-66
2022/12/18 07:41:10;;;;;;;76.78;29.75;;;;;;;;;;5113041;28;20143;-64
2022/12/18 07:43:36;;;;;;;80.75;29.80;;;;;;;;;;5112727;28;20048;-67
2022/12/18 07:46:03;;;;;;;78.90;31.23;;;;;;;;;;5113097;28;20049;-64
2022/12/18 07:48:29;;;;;;;;;;;-4.70;99.90;;;;;;5114573;28;20047;-65
2022/12/18 07:50:58;;;;;;;75.85;30.02;;;;;;;;;;5114041;28;19956;-64
2022/12/18 07:53:24;;;;;;;70.07;30.95;;;;;;;;;;5113836;28;20458;-64
2022/12/18 07:55:55;;;;;;;77.60;31.45;;;;;;;;;;5114001;28;20070;-64
2022/12/18 07:58:21;;;;;;;79.03;30.27;;;;;;;;;;5113863;28;20048;-64
2022/12/18 08:00:47;;;;;;;74.28;29.42;;;;;;;;;;5112891;28;20085;-65
2022/12/18 08:03:13;;;;;;;73.53;28.58;;;;;;;;;;5113858;28;20051;-64
2022/12/18 08:05:39;;;;;;;99.55;35.72;;;;;;;;;;5113895;28;20104;-64
2022/12/18 08:08:05;;;;;;;177.40;64.75;;;;;;;;;;5114024;28;20049;-64
2022/12/18 08:10:31;;;;;;;93.43;40.08;;;;;;;;;;5113820;28;20092;-64
2022/12/18 08:12:57;;;;;;;73.43;27.77;;;;;;;;;;5113341;28;20039;-67
2022/12/18 08:15:23;;;;;;;104.25;43.53;;;;;;;;;;5113588;28;20058;-64
2022/12/18 08:17:49;;;;;;;70.60;30.42;;;;;;;;;;5113427;28;20132;-65
2022/12/18 08:20:16;;;;;;;95.68;45.88;;;;;;;;;;5113484;28;20048;-65
2022/12/18 08:22:43;;;;;;;118.18;58.20;;;;;;;;;;5113834;28;20069;-67
2022/12/18 08:25:09;;;;;;;144.25;66.03;;;;;;;;;;5112230;28;20134;-67
2022/12/18 08:27:35;;;;;;;133.27;52.78;;;;;;;;;;5112920;28;20047;-64
2022/12/18 08:30:01;;;;;;;235.27;90.97;;;;;;;;;;5113633;28;20039;-64
2022/12/18 08:32:27;;;;;;;114.93;43.28;;;;;;;;;;5113476;28;20046;-64
2022/12/18 08:34:53;;;;;;;72.28;29.35;;;;;;;;;;5113673;28;20051;-67
2022/12/18 08:37:19;;;;;;;59.95;25.85;;;;;;;;;;5113712;28;20054;-64
2022/12/18 08:39:46;;;;;;;59.28;24.88;;;;;;;;;;5113612;28;20047;-64
2022/12/18 08:44:56;;;;;;;61.75;27.33;;;;;;;;;;5113359;28;20135;-65
2022/12/18 08:47:22;;;;;;;56.25;25.42;;;;;;;;;;5113473;28;20050;-64
2022/12/18 08:49:48;;;;;;;68.60;25.50;;;;;;;;;;5113543;28;20825;-64
2022/12/18 08:52:14;;;;;;;58.38;25.83;;;;;;;;;;5113535;28;20043;-66
2022/12/18 08:54:40;;;;;;;60.45;27.83;;;;;;;;;;5113363;28;20372;-65
2022/12/18 08:57:06;;;;;;;59.05;25.90;;;;;;;;;;5111821;28;20441;-64
2022/12/18 08:59:33;;;;;;;57.35;24.90;;;;;;;;;;5113262;28;20044;-65
2022/12/18 09:01:59;;;;;;;54.10;23.17;;;;;;;;;;5113298;28;20050;-64
2022/12/18 09:04:25;;;;;;;51.42;23.55;;;;;;;;;;5113198;28;20051;-68
2022/12/18 09:06:51;;;;;;;52.72;24.63;;;;;;;;;;5113247;28;20054;-64
2022/12/18 09:09:17;;;;;;;52.65;23.45;;;;;;;;;;5113090;28;20058;-64
2022/12/18 09:11:43;;;;;;;44.35;21.00;;;;;;;;;;5112832;28;20058;-65
2022/12/18 09:14:10;;;;;;;49.00;21.38;;;;;;;;;;5112707;28;20143;-64
2022/12/18 09:16:36;;;;;;;;;;;;;;;;;;5112048;28;20101;-65
2022/12/18 09:19:03;;;;;;;51.67;22.23;;;;;;;;;;5111622;28;19924;-65
2022/12/18 09:21:30;;;;;;;46.60;21.05;;;;;;;;;;5112839;28;20059;-65
2022/12/18 09:23:56;;;;;;;49.78;21.83;;;;;;;;;;5112820;28;20101;-65
2022/12/18 09:26:23;;;;;;;46.42;20.23;;;;;;;;;;5111597;28;20413;-64
2022/12/18 09:28:49;;;;;;;40.25;18.48;;;;;;;;;;5112352;28;20459;-67
2022/12/18 09:31:16;;;;;;;43.58;18.92;;;;;;;;;;5111329;28;20050;-65
2022/12/18 09:33:42;;;;;;;44.45;18.60;;;;;;;;;;5112121;28;20079;-65
2022/12/18 09:36:11;;;;;;;42.15;18.77;;;;;;;;;;5111471;28;20055;-65
2022/12/18 09:38:37;;;;;;;44.03;18.85;;;;;;;;;;5112229;28;20058;-68
2022/12/18 09:41:05;;;;;;;44.78;17.65;;;;;;;;;;5114400;28;20147;-65
2022/12/18 09:43:41;;;;;;;36.38;17.25;;;;;;;;;;5116433;28;20044;-65
2022/12/18 09:46:09;;;;;;;41.67;18.60;;;;;;;;;;5116603;28;20051;-68
2022/12/18 09:48:36;;;;;;;38.28;18.58;;;;;;;;;;5116291;28;20090;-66
2022/12/18 09:51:12;;;;;;;46.17;19.80;;;;;;;;;;5116281;28;20108;-68
2022/12/18 09:53:39;;;;;;;38.70;17.13;;;;;;;;;;5116062;28;20056;-67
2022/12/18 09:56:05;;;;;;;37.38;17.42;;;;;;;;;;5115366;28;20043;-65
2022/12/18 09:58:38;;;;;;;37.78;17.20;;;;;;;;;;5116417;28;20043;-65
2022/12/18 10:01:10;;;;;;;42.05;19.30;;;;;;;;;;5116362;28;20083;-65
2022/12/18 10:03:36;;;;;;;44.50;19.40;;;;;;;;;;5116437;28;20039;-65
2022/12/18 10:06:07;;;;;;;37.22;17.70;;;;;;;;;;5116303;28;20047;-65
2022/12/18 10:08:46;;;;;;;40.10;17.10;;;;;;;;;;5116135;28;20476;-65
2022/12/18 10:11:15;;;;;;;37.70;17.52;;;;;;;;;;5114748;28;20039;-66
2022/12/18 10:13:44;;;;;;;44.47;17.90;;;;;;;;;;5115796;28;20102;-65
2022/12/18 10:16:16;;;;;;;45.70;18.88;;;;;;;;;;5114805;28;20050;-65
2022/12/18 10:18:51;;;;;;;37.20;16.25;;;;;;;;;;5115757;28;20070;-65
2022/12/18 10:21:19;;;;;;;44.30;17.67;;;;;;;;;;5115662;28;20040;-66
2022/12/18 10:23:45;;;;;;;32.67;15.30;;;;;;;;;;5115366;28;20286;-66
2022/12/18 10:26:14;;;;;;;42.92;16.95;;;;;;;;;;5115757;28;20507;-66
2022/12/18 10:28:41;;;;;;;39.15;16.52;;;;;;;;;;5115658;28;20139;-68
2022/12/18 10:31:16;;;;;;;34.20;15.52;;;;;;;;;;5115517;28;20046;-66
2022/12/18 10:33:42;;;;;;;32.42;15.52;;;;;;;;;;5115401;28;20050;-66
2022/12/18 10:36:09;;;;;;;28.67;14.07;;;;;;;;;;5115530;28;20044;-66
2022/12/18 10:38:36;;;;;;;29.98;14.52;;;;;;;;;;5115035;28;20487;-67
2022/12/18 10:41:11;;;;;;;28.05;13.98;;;;;;;;;;5115369;28;20056;-66
2022/12/18 10:43:40;;;;;;;37.33;15.88;;;;;;;;;;5115493;28;20058;-66
2022/12/18 10:46:09;;;;;;;34.65;14.35;;;;;;;;;;5115240;28;20047;-66
2022/12/18 10:48:36;;;;;;;30.65;14.32;;;;;;;;;;5113937;28;20070;-71
2022/12/18 10:51:03;;;;;;;29.80;13.45;;;;;;;;;;5114491;28;20050;-66
2022/12/18 10:53:31;;;;;;;27.75;13.48;;;;;;;;;;5114696;28;20100;-66
2022/12/18 10:55:58;;;;;;;29.30;13.73;;;;;;;;;;5115053;28;20083;-66
2022/12/18 10:58:32;;;;;;;27.75;13.02;;;;;;;;;;5114989;28;20058;-66
2022/12/18 11:01:01;;;;;;;25.40;12.95;;;;;;;;;;5114938;28;20044;-66
2022/12/18 11:03:32;;;;;;;27.48;12.07;;;;;;;;;;5114845;28;20039;-66
2022/12/18 11:06:05;;;;;;;30.75;15.65;;;;;;;;;;5114540;28;20050;-66
2022/12/18 11:08:31;;;;;;;25.92;13.98;;;;;;;;;;5114728;28;20433;-67
2022/12/18 11:10:58;;;;;;;27.02;12.68;;;;;;;;;;5114673;28;20052;-67
2022/12/18 11:13:28;;;;;;;22.40;11.30;;;;;;;;;;5114651;28;20609;-66
2022/12/18 11:15:54;;;;;;;21.83;11.10;;;;;;;;;;5114658;28;20391;-66
2022/12/18 11:18:25;;;;;;;20.30;11.25;;;;;;;;;;5114582;28;20382;-70
2022/12/18 11:20:57;;;;;;;23.63;11.27;;;;;;;;;;5114398;28;20044;-67
2022/12/18 11:23:23;;;;;;;24.40;12.32;;;;;;;;;;5113409;28;20063;-67
2022/12/18 11:25:54;;;;;;;;;;;-1.70;99.90;;;;;;5114877;28;20483;-66
2022/12/18 11:28:29;;;;;;;31.80;13.43;;;;;;;;;;5114054;28;20371;-66
2022/12/18 11:31:18;;;;;;;31.80;13.70;;;-1.80;99.90;;;;;;5114370;28;20559;-66
2022/12/18 11:33:57;;;;;;;30.85;13.50;;;;;;;;;;5113851;28;20496;-66
2022/12/18 11:36:23;;;;;;;27.13;12.27;;;;;;;;;;5114058;28;20052;-66
2022/12/18 11:38:49;;;;;;;;;;;;;;;;;;5114638;28;20043;-66
2022/12/18 11:44:42;;;;;;;22.85;11.60;;;-1.70;99.90;;;;;;5114138;28;20085;-66
2022/12/18 11:47:14;;;;;;;24.98;13.35;;;;;;;;;;5114098;28;20056;-66
2022/12/18 11:49:42;;;;;;;23.77;10.82;;;;;;;;;;5113714;28;20040;-66
2022/12/18 11:52:14;;;;;;;21.42;10.13;;;;;;;;;;5113824;28;20047;-66
2022/12/18 11:54:40;;;;;;;21.85;10.32;;;;;;;;;;5113979;28;20044;-66
2022/12/18 11:57:28;;;;;;;22.60;11.57;;;;;;;;;;5113907;28;20043;-66
2022/12/18 12:00:12;;;;;;;21.90;10.10;;;;;;;;;;5113854;28;20050;-66
2022/12/18 12:02:44;;;;;;;19.15;10.50;;;;;;;;;;5111561;28;20039;-66
2022/12/18 12:05:13;;;;;;;23.17;10.75;;;;;;;;;;5113389;28;20372;-67
2022/12/18 12:08:00;;;;;;;20.50;9.98;;;-1.70;99.90;;;;;;5113594;28;20053;-66
2022/12/18 12:10:29;;;;;;;22.80;9.70;;;;;;;;;;5113676;28;20051;-66
2022/12/18 12:13:32;;;;;;;15.75;8.75;;;-1.40;99.90;;;;;;5113450;28;20384;-66
2022/12/18 12:16:28;;;;;;;15.77;7.97;;;-1.30;99.90;;;;;;5111630;28;20086;-67
2022/12/18 12:18:54;;;;;;;17.42;9.00;;;;;;;;;;5094944;28;20052;-66
2022/12/18 12:21:20;;;;;;;18.92;8.98;;;-1.50;99.90;;;;;;5112229;28;20043;-66
2022/12/18 12:24:04;;;;;;;16.83;8.60;;;;;;;;;;5113310;28;20059;-68
2022/12/18 12:26:36;;;;;;;18.75;9.10;;;;;;;;;;5113250;28;20047;-66
2022/12/18 12:29:29;;;;;;;16.10;8.45;;;-1.10;99.90;;;;;;5113265;28;20070;-67
2022/12/18 12:32:13;;;;;;;14.98;8.18;;;;;;;;;;5113317;28;20043;-66
2022/12/18 12:34:49;;;;;;;13.57;8.13;;;;;;;;;;5113151;28;20043;-66
2022/12/18 12:37:34;;;;;;;13.40;7.45;;;;;;;;;;5112066;28;20047;-66
2022/12/18 12:40:01;;;;;;;14.68;7.45;;;;;;;;;;5113010;28;20055;-66
2022/12/18 12:45:31;;;;;;;13.18;7.85;;;;;;;;;;5113027;28;20731;-66
2022/12/18 12:47:58;;;;;;;13.23;7.00;;;;;;;;;;5112668;28;20062;-67
2022/12/18 12:50:24;;;;;;;12.60;7.10;;;;;;;;;;5112795;28;20484;-66
2022/12/18 12:52:56;;;;;;;;;;;-1.20;99.90;;;;;;5113158;28;20063;-66
2022/12/18 12:55:26;;;;;;;12.95;7.07;;;;;;;;;;5111366;28;19923;-69
2022/12/18 12:57:52;;;;;;;16.77;7.57;;;;;;;;;;5112710;28;20053;-67
2022/12/18 13:00:19;;;;;;;10.85;6.20;;;;;;;;;;5112550;28;20484;-67
2022/12/18 13:02:56;;;;;;;15.02;8.15;;;;;;;;;;5112266;28;20043;-66
2022/12/18 13:05:22;;;;;;;15.48;8.20;;;;;;;;;;5112623;28;20051;-69
2022/12/18 13:07:53;;;;;;;11.90;7.07;;;;;;;;;;5112620;28;20051;-67
2022/12/18 13:10:19;;;;;;;13.18;7.40;;;;;;;;;;5112565;28;20051;-66
2022/12/18 13:12:57;;;;;;;12.88;7.15;;;;;;;;;;5112685;28;20093;-67
2022/12/18 13:15:23;;;;;;;12.57;6.03;;;;;;;;;;5112230;28;20487;-66
2022/12/18 13:17:49;;;;;;;11.82;7.50;;;;;;;;;;5112347;28;20047;-66
2022/12/18 13:20:16;;;;;;;18.48;7.57;;;;;;;;;;5112448;28;20071;-67
2022/12/18 13:22:46;;;;;;;14.15;7.28;;;;;;;;;;5112494;28;20043;-66
2022/12/18 13:25:28;;;;;;;17.83;7.03;;;;;;;;;;5112310;28;20051;-66
2022/12/18 13:28:06;;;;;;;17.10;7.68;;;;;;;;;;5112100;28;20511;-67
2022/12/18 13:30:32;;;;;;;12.50;6.35;;;;;;;;;;5112333;28;20467;-67
2022/12/18 13:33:24;;;;;;;16.45;10.23;;;;;;;;;;5112161;28;20036;-67
2022/12/18 13:35:50;;;;;;;16.42;10.52;;;;;;;;;;5095599;28;20523;-67
2022/12/18 13:38:19;;;;;;;19.45;8.65;;;;;;;;;;5111046;28;20079;-66
2022/12/18 13:40:50;;;;;;;14.80;6.90;;;;;;;;;;5112097;28;20056;-67
2022/12/18 13:43:19;;;;;;;12.52;5.88;;;;;;;;;;5111190;28;20380;-66
2022/12/18 13:45:58;;;;;;;17.75;7.07;;;;;;;;;;5112002;28;20131;-67
2022/12/18 13:48:26;;;;;;;17.10;6.78;;;;;;;;;;5112255;28;20048;-66
2022/12/18 13:51:03;;;;;;;41.22;11.25;;;;;;;;;;5112061;28;20044;-67
2022/12/18 13:53:34;;;;;;;20.90;8.77;;;;;;;;;;5111676;28;20150;-67
2022/12/18 13:56:00;;;;;;;11.93;6.63;;;;;;;;;;5112068;28;20476;-66
2022/12/18 13:58:27;;;;;;;17.98;8.07;;;;;;;;;;5111788;28;20471;-67
2022/12/18 14:00:53;;;;;;;14.75;7.85;;;;;;;;;;5111748;28;20143;-71
2022/12/18 14:03:21;;;;;;;21.05;9.88;;;;;;;;;;5111954;28;20043;-66
2022/12/18 14:05:53;;;;;;;17.40;8.68;;;;;;;;;;5111726;28;20503;-67
2022/12/18 14:08:19;;;;;;;20.77;10.07;;;;;;;;;;5112059;28;20069;-67
2022/12/18 14:10:46;;;;;;;12.85;7.55;;;;;;;;;;5111619;28;20506;-66
2022/12/18 14:13:16;;;;;;;14.98;7.85;;;;;;;;;;5111834;28;20242;-67
2022/12/18 14:15:44;;;;;;;11.07;6.30;;;;;;;;;;5111646;28;20108;-71
2022/12/18 14:18:24;;;;;;;22.67;10.55;;;;;;;;;;5111789;28;20079;-66
2022/12/18 14:20:52;;;;;;;27.02;11.07;;;;;;;;;;5111847;28;20044;-67
2022/12/18 14:23:38;;;;;;;29.33;12.75;;;;;;;;;;5111799;28;20048;-67
2022/12/18 14:26:20;;;;;;;29.08;13.45;;;;;;;;;;5112472;28;20403;-67
2022/12/18 14:28:46;;;;;;;21.98;11.07;;;;;;;;;;5115670;28;20372;-66
2022/12/18 14:31:19;;;;;;;24.15;11.60;;;;;;;;;;5115526;28;20058;-66
2022/12/18 14:33:46;;;;;;;49.78;19.75;;;;;;;;;;5115688;28;20047;-66